Terminal Aerodrome Forecast
Issued by NWS

Home | Current Version | Previous Version | Text Only | Print | Product List | Glossary On
Versions: 1 2 3 4 5 6 7 8 9 10 11 12 13 14 15 16 17 18 19 20 21 22 23 24
000
FTUS43 KSGF 220520
TAFJLN
TAF
KJLN 220520Z 2206/2306 18004KT P6SM SKC
     FM221000 18004KT 5SM BR FEW150
     FM221200 18004KT 1SM BR FEW035
     FM221500 19005KT P6SM FEW040
     FM221600 20012KT P6SM FEW250=

USA.gov is the U.S. government's official web portal to all federal, state and local government web resources and services.